sensor_id;sensor_type;location;lat;lon;timestamp;P1;durP1;ratioP1;P2;durP2;ratioP2
2119;SDS011;1066;52.540;13.420;2022-11-15T00:01:26;31.83;;;25.20;;
2119;SDS011;1066;52.540;13.420;2022-11-15T00:03:51;26.03;;;23.00;;
2119;SDS011;1066;52.540;13.420;2022-11-15T00:06:17;28.13;;;23.60;;
2119;SDS011;1066;52.540;13.420;2022-11-15T00:08:42;34.03;;;24.00;;
2119;SDS011;1066;52.540;13.420;2022-11-15T00:11:08;27.63;;;22.87;;
2119;SDS011;1066;52.540;13.420;2022-11-15T00:13:35;29.57;;;23.80;;
2119;SDS011;1066;52.540;13.420;2022-11-15T00:16:00;28.17;;;24.50;;
2119;SDS011;1066;52.540;13.420;2022-11-15T00:18:26;30.13;;;23.90;;
2119;SDS011;1066;52.540;13.420;2022-11-15T00:20:52;27.10;;;23.60;;
2119;SDS011;1066;52.540;13.420;2022-11-15T00:23:17;29.00;;;24.57;;
2119;SDS011;1066;52.540;13.420;2022-11-15T00:25:42;24.60;;;21.37;;
2119;SDS011;1066;52.540;13.420;2022-11-15T00:28:08;26.60;;;22.03;;
2119;SDS011;1066;52.540;13.420;2022-11-15T00:30:33;26.00;;;22.17;;
2119;SDS011;1066;52.540;13.420;2022-11-15T00:33:03;26.07;;;21.50;;
2119;SDS011;1066;52.540;13.420;2022-11-15T00:35:30;27.93;;;23.07;;
2119;SDS011;1066;52.540;13.420;2022-11-15T00:37:57;25.50;;;22.73;;
2119;SDS011;1066;52.540;13.420;2022-11-15T00:40:22;28.33;;;23.87;;
2119;SDS011;1066;52.540;13.420;2022-11-15T00:42:47;30.53;;;25.83;;
2119;SDS011;1066;52.540;13.420;2022-11-15T00:45:13;26.83;;;22.43;;
2119;SDS011;1066;52.540;13.420;2022-11-15T00:47:38;30.03;;;23.63;;
2119;SDS011;1066;52.540;13.420;2022-11-15T00:50:03;28.87;;;23.67;;
2119;SDS011;1066;52.540;13.420;2022-11-15T00:52:29;29.17;;;24.40;;
2119;SDS011;1066;52.540;13.420;2022-11-15T00:54:54;27.93;;;22.47;;
2119;SDS011;1066;52.540;13.420;2022-11-15T00:57:20;28.70;;;24.53;;
2119;SDS011;1066;52.540;13.420;2022-11-15T00:59:45;25.47;;;21.30;;
2119;SDS011;1066;52.540;13.420;2022-11-15T01:02:10;26.87;;;23.80;;
2119;SDS011;1066;52.540;13.420;2022-11-15T01:04:36;31.23;;;22.97;;
2119;SDS011;1066;52.540;13.420;2022-11-15T01:07:01;27.30;;;22.40;;
2119;SDS011;1066;52.540;13.420;2022-11-15T01:09:26;33.07;;;23.63;;
2119;SDS011;1066;52.540;13.420;2022-11-15T01:11:52;26.43;;;22.00;;
2119;SDS011;1066;52.540;13.420;2022-11-15T01:14:17;27.47;;;23.40;;
2119;SDS011;1066;52.540;13.420;2022-11-15T01:16:42;25.53;;;22.80;;
2119;SDS011;1066;52.540;13.420;2022-11-15T01:19:08;30.00;;;24.40;;
2119;SDS011;1066;52.540;13.420;2022-11-15T01:21:33;29.50;;;23.70;;
2119;SDS011;1066;52.540;13.420;2022-11-15T01:23:58;27.27;;;23.20;;
2119;SDS011;1066;52.540;13.420;2022-11-15T01:26:24;28.27;;;22.83;;
2119;SDS011;1066;52.540;13.420;2022-11-15T01:28:50;28.57;;;23.77;;
2119;SDS011;1066;52.540;13.420;2022-11-15T01:31:17;24.57;;;22.00;;
2119;SDS011;1066;52.540;13.420;2022-11-15T01:33:44;28.87;;;23.00;;
2119;SDS011;1066;52.540;13.420;2022-11-15T01:36:11;28.23;;;23.20;;
2119;SDS011;1066;52.540;13.420;2022-11-15T01:38:38;25.53;;;22.63;;
2119;SDS011;1066;52.540;13.420;2022-11-15T01:41:04;30.87;;;24.80;;
2119;SDS011;1066;52.540;13.420;2022-11-15T01:43:30;28.33;;;24.13;;
2119;SDS011;1066;52.540;13.420;2022-11-15T01:48:49;25.73;;;22.93;;
2119;SDS011;1066;52.540;13.420;2022-11-15T01:51:17;25.10;;;22.07;;
2119;SDS011;1066;52.540;13.420;2022-11-15T01:53:45;25.83;;;22.67;;
2119;SDS011;1066;52.540;13.420;2022-11-15T01:56:13;24.07;;;21.57;;
2119;SDS011;1066;52.540;13.420;2022-11-15T01:58:41;26.97;;;23.73;;
2119;SDS011;1066;52.540;13.420;2022-11-15T02:01:08;25.70;;;22.73;;
2119;SDS011;1066;52.540;13.420;2022-11-15T02:03:38;29.87;;;23.73;;
2119;SDS011;1066;52.540;13.420;2022-11-15T02:06:07;24.97;;;22.17;;
2119;SDS011;1066;52.540;13.420;2022-11-15T02:08:33;30.10;;;24.43;;
2119;SDS011;1066;52.540;13.420;2022-11-15T02:10:58;24.30;;;21.73;;
2119;SDS011;1066;52.540;13.420;2022-11-15T02:13:24;27.63;;;23.73;;
2119;SDS011;1066;52.540;13.420;2022-11-15T02:15:59;30.17;;;23.30;;
2119;SDS011;1066;52.540;13.420;2022-11-15T02:18:35;26.33;;;21.73;;
2119;SDS011;1066;52.540;13.420;2022-11-15T02:26:50;29.10;;;23.80;;
2119;SDS011;1066;52.540;13.420;2022-11-15T02:32:17;26.67;;;22.07;;
2119;SDS011;1066;52.540;13.420;2022-11-15T02:34:50;29.57;;;26.37;;
2119;SDS011;1066;52.540;13.420;2022-11-15T02:40:16;28.63;;;23.83;;
2119;SDS011;1066;52.540;13.420;2022-11-15T02:42:45;28.87;;;23.60;;
2119;SDS011;1066;52.540;13.420;2022-11-15T02:45:35;29.20;;;22.90;;
2119;SDS011;1066;52.540;13.420;2022-11-15T02:48:03;31.13;;;23.83;;
2119;SDS011;1066;52.540;13.420;2022-11-15T02:50:29;25.67;;;22.57;;
2119;SDS011;1066;52.540;13.420;2022-11-15T02:52:57;27.27;;;22.50;;
2119;SDS011;1066;52.540;13.420;2022-11-15T02:55:29;28.73;;;23.70;;
2119;SDS011;1066;52.540;13.420;2022-11-15T03:00:38;24.70;;;22.00;;
2119;SDS011;1066;52.540;13.420;2022-11-15T03:03:18;25.00;;;21.87;;
2119;SDS011;1066;52.540;13.420;2022-11-15T03:18:52;24.97;;;21.40;;
2119;SDS011;1066;52.540;13.420;2022-11-15T03:21:22;26.67;;;23.47;;
2119;SDS011;1066;52.540;13.420;2022-11-15T03:23:49;28.30;;;22.73;;
2119;SDS011;1066;52.540;13.420;2022-11-15T03:26:16;28.63;;;22.60;;
2119;SDS011;1066;52.540;13.420;2022-11-15T03:31:10;28.93;;;23.00;;
2119;SDS011;1066;52.540;13.420;2022-11-15T03:33:55;27.27;;;22.70;;
2119;SDS011;1066;52.540;13.420;2022-11-15T03:36:22;29.73;;;24.83;;
2119;SDS011;1066;52.540;13.420;2022-11-15T03:38:49;25.13;;;20.97;;
2119;SDS011;1066;52.540;13.420;2022-11-15T03:41:22;26.93;;;22.70;;
2119;SDS011;1066;52.540;13.420;2022-11-15T03:43:57;26.50;;;21.67;;
2119;SDS011;1066;52.540;13.420;2022-11-15T03:46:27;28.90;;;22.90;;
2119;SDS011;1066;52.540;13.420;2022-11-15T03:48:59;30.73;;;23.90;;
2119;SDS011;1066;52.540;13.420;2022-11-15T03:51:29;29.03;;;23.73;;
2119;SDS011;1066;52.540;13.420;2022-11-15T03:53:55;27.80;;;23.00;;
2119;SDS011;1066;52.540;13.420;2022-11-15T03:56:20;26.57;;;22.37;;
2119;SDS011;1066;52.540;13.420;2022-11-15T03:58:45;26.73;;;21.73;;
2119;SDS011;1066;52.540;13.420;2022-11-15T04:01:11;26.50;;;22.13;;
2119;SDS011;1066;52.540;13.420;2022-11-15T04:03:36;24.53;;;22.00;;
2119;SDS011;1066;52.540;13.420;2022-11-15T04:06:01;24.17;;;21.60;;
2119;SDS011;1066;52.540;13.420;2022-11-15T04:08:26;26.80;;;22.47;;
2119;SDS011;1066;52.540;13.420;2022-11-15T04:10:52;25.93;;;22.77;;
2119;SDS011;1066;52.540;13.420;2022-11-15T04:13:18;24.27;;;21.67;;
2119;SDS011;1066;52.540;13.420;2022-11-15T04:15:43;27.17;;;23.07;;
2119;SDS011;1066;52.540;13.420;2022-11-15T04:18:08;29.40;;;21.93;;
2119;SDS011;1066;52.540;13.420;2022-11-15T04:20:34;30.80;;;23.50;;
2119;SDS011;1066;52.540;13.420;2022-11-15T04:23:21;27.47;;;22.17;;
2119;SDS011;1066;52.540;13.420;2022-11-15T04:26:14;28.77;;;23.30;;
2119;SDS011;1066;52.540;13.420;2022-11-15T04:28:41;29.67;;;22.07;;
2119;SDS011;1066;52.540;13.420;2022-11-15T04:31:25;27.00;;;22.63;;
2119;SDS011;1066;52.540;13.420;2022-11-15T04:33:50;26.90;;;23.03;;
2119;SDS011;1066;52.540;13.420;2022-11-15T04:36:16;30.80;;;23.40;;
2119;SDS011;1066;52.540;13.420;2022-11-15T04:38:59;26.10;;;21.73;;
2119;SDS011;1066;52.540;13.420;2022-11-15T04:41:25;25.87;;;21.83;;
2119;SDS011;1066;52.540;13.420;2022-11-15T04:43:50;27.83;;;21.30;;
2119;SDS011;1066;52.540;13.420;2022-11-15T04:46:16;24.27;;;21.73;;
2119;SDS011;1066;52.540;13.420;2022-11-15T04:48:41;27.10;;;21.93;;
2119;SDS011;1066;52.540;13.420;2022-11-15T04:51:06;27.13;;;21.77;;
2119;SDS011;1066;52.540;13.420;2022-11-15T04:53:31;27.67;;;22.70;;
2119;SDS011;1066;52.540;13.420;2022-11-15T04:55:57;26.93;;;21.80;;
2119;SDS011;1066;52.540;13.420;2022-11-15T04:58:22;26.00;;;23.40;;
2119;SDS011;1066;52.540;13.420;2022-11-15T05:00:47;25.60;;;21.80;;
2119;SDS011;1066;52.540;13.420;2022-11-15T05:03:13;27.33;;;23.37;;
2119;SDS011;1066;52.540;13.420;2022-11-15T05:05:57;25.50;;;20.43;;
2119;SDS011;1066;52.540;13.420;2022-11-15T05:08:23;27.17;;;20.70;;
2119;SDS011;1066;52.540;13.420;2022-11-15T05:10:48;26.00;;;22.90;;
2119;SDS011;1066;52.540;13.420;2022-11-15T05:13:14;24.83;;;21.27;;
2119;SDS011;1066;52.540;13.420;2022-11-15T05:15:39;26.77;;;22.17;;
2119;SDS011;1066;52.540;13.420;2022-11-15T05:18:04;27.83;;;20.77;;
2119;SDS011;1066;52.540;13.420;2022-11-15T05:20:30;25.77;;;21.93;;
2119;SDS011;1066;52.540;13.420;2022-11-15T05:22:55;24.83;;;21.50;;
2119;SDS011;1066;52.540;13.420;2022-11-15T05:25:21;28.10;;;22.10;;
2119;SDS011;1066;52.540;13.420;2022-11-15T05:27:47;24.80;;;21.17;;
2119;SDS011;1066;52.540;13.420;2022-11-15T05:30:12;26.93;;;22.23;;
2119;SDS011;1066;52.540;13.420;2022-11-15T05:32:37;29.40;;;22.40;;
2119;SDS011;1066;52.540;13.420;2022-11-15T05:35:03;24.83;;;21.77;;
2119;SDS011;1066;52.540;13.420;2022-11-15T05:37:30;25.13;;;21.00;;
2119;SDS011;1066;52.540;13.420;2022-11-15T05:39:55;24.43;;;21.80;;
2119;SDS011;1066;52.540;13.420;2022-11-15T05:42:21;26.70;;;21.77;;
2119;SDS011;1066;52.540;13.420;2022-11-15T05:44:47;24.50;;;21.70;;
2119;SDS011;1066;52.540;13.420;2022-11-15T05:47:15;26.67;;;22.63;;
2119;SDS011;1066;52.540;13.420;2022-11-15T05:49:42;25.77;;;22.07;;
2119;SDS011;1066;52.540;13.420;2022-11-15T05:52:09;27.40;;;23.30;;
2119;SDS011;1066;52.540;13.420;2022-11-15T05:54:36;25.07;;;22.20;;
2119;SDS011;1066;52.540;13.420;2022-11-15T05:57:03;26.23;;;22.70;;
2119;SDS011;1066;52.540;13.420;2022-11-15T05:59:29;28.67;;;22.37;;
2119;SDS011;1066;52.540;13.420;2022-11-15T06:01:55;24.90;;;21.20;;
2119;SDS011;1066;52.540;13.420;2022-11-15T06:04:21;27.53;;;21.40;;
2119;SDS011;1066;52.540;13.420;2022-11-15T06:06:46;26.70;;;23.20;;
2119;SDS011;1066;52.540;13.420;2022-11-15T06:09:11;27.70;;;22.97;;
2119;SDS011;1066;52.540;13.420;2022-11-15T06:11:36;26.70;;;21.70;;
2119;SDS011;1066;52.540;13.420;2022-11-15T06:14:02;27.13;;;22.97;;
2119;SDS011;1066;52.540;13.420;2022-11-15T06:16:27;27.00;;;21.57;;
2119;SDS011;1066;52.540;13.420;2022-11-15T06:18:52;31.40;;;24.33;;
2119;SDS011;1066;52.540;13.420;2022-11-15T06:21:18;26.47;;;22.50;;
2119;SDS011;1066;52.540;13.420;2022-11-15T06:23:43;25.47;;;22.43;;
2119;SDS011;1066;52.540;13.420;2022-11-15T06:26:08;24.67;;;20.80;;
2119;SDS011;1066;52.540;13.420;2022-11-15T06:28:34;26.90;;;21.70;;
2119;SDS011;1066;52.540;13.420;2022-11-15T06:31:03;25.60;;;22.80;;
2119;SDS011;1066;52.540;13.420;2022-11-15T06:33:32;27.23;;;24.40;;
2119;SDS011;1066;52.540;13.420;2022-11-15T06:36:01;30.13;;;24.03;;
2119;SDS011;1066;52.540;13.420;2022-11-15T06:38:27;25.50;;;22.40;;
2119;SDS011;1066;52.540;13.420;2022-11-15T06:40:53;27.40;;;23.77;;
2119;SDS011;1066;52.540;13.420;2022-11-15T06:43:18;28.43;;;24.70;;
2119;SDS011;1066;52.540;13.420;2022-11-15T06:45:43;30.67;;;25.17;;
2119;SDS011;1066;52.540;13.420;2022-11-15T06:48:09;28.37;;;24.07;;
2119;SDS011;1066;52.540;13.420;2022-11-15T06:50:34;26.90;;;23.97;;
2119;SDS011;1066;52.540;13.420;2022-11-15T06:53:03;28.53;;;25.33;;
2119;SDS011;1066;52.540;13.420;2022-11-15T06:55:28;26.00;;;22.90;;
2119;SDS011;1066;52.540;13.420;2022-11-15T06:57:54;28.43;;;23.03;;
2119;SDS011;1066;52.540;13.420;2022-11-15T07:00:20;26.50;;;23.67;;
2119;SDS011;1066;52.540;13.420;2022-11-15T07:02:46;29.10;;;23.10;;
2119;SDS011;1066;52.540;13.420;2022-11-15T07:05:12;28.53;;;22.73;;
2119;SDS011;1066;52.540;13.420;2022-11-15T07:07:38;27.53;;;22.60;;
2119;SDS011;1066;52.540;13.420;2022-11-15T07:10:03;26.10;;;23.37;;
2119;SDS011;1066;52.540;13.420;2022-11-15T07:12:29;28.63;;;23.70;;
2119;SDS011;1066;52.540;13.420;2022-11-15T07:14:54;27.57;;;22.93;;
2119;SDS011;1066;52.540;13.420;2022-11-15T07:17:20;27.90;;;22.57;;
2119;SDS011;1066;52.540;13.420;2022-11-15T07:19:45;26.97;;;22.40;;
2119;SDS011;1066;52.540;13.420;2022-11-15T07:22:10;28.67;;;23.87;;
2119;SDS011;1066;52.540;13.420;2022-11-15T07:24:36;30.23;;;22.80;;
2119;SDS011;1066;52.540;13.420;2022-11-15T07:27:01;26.13;;;21.97;;
2119;SDS011;1066;52.540;13.420;2022-11-15T07:29:26;25.90;;;23.10;;
2119;SDS011;1066;52.540;13.420;2022-11-15T07:31:52;26.57;;;22.17;;
2119;SDS011;1066;52.540;13.420;2022-11-15T07:34:17;30.47;;;25.27;;
2119;SDS011;1066;52.540;13.420;2022-11-15T07:36:42;26.53;;;22.30;;
2119;SDS011;1066;52.540;13.420;2022-11-15T07:39:08;27.13;;;22.80;;
2119;SDS011;1066;52.540;13.420;2022-11-15T07:41:33;27.07;;;22.90;;
2119;SDS011;1066;52.540;13.420;2022-11-15T07:43:58;27.73;;;24.80;;
2119;SDS011;1066;52.540;13.420;2022-11-15T07:46:24;29.90;;;22.47;;
2119;SDS011;1066;52.540;13.420;2022-11-15T07:48:49;24.23;;;21.53;;
2119;SDS011;1066;52.540;13.420;2022-11-15T07:51:15;26.43;;;22.80;;
2119;SDS011;1066;52.540;13.420;2022-11-15T07:53:44;27.43;;;22.57;;
2119;SDS011;1066;52.540;13.420;2022-11-15T07:56:10;32.83;;;24.57;;
2119;SDS011;1066;52.540;13.420;2022-11-15T07:58:35;28.10;;;22.53;;
2119;SDS011;1066;52.540;13.420;2022-11-15T08:01:07;28.33;;;25.20;;
2119;SDS011;1066;52.540;13.420;2022-11-15T08:03:34;28.93;;;22.70;;
2119;SDS011;1066;52.540;13.420;2022-11-15T08:05:59;26.20;;;20.60;;
2119;SDS011;1066;52.540;13.420;2022-11-15T08:08:24;30.37;;;22.87;;
2119;SDS011;1066;52.540;13.420;2022-11-15T08:10:50;25.70;;;21.33;;
2119;SDS011;1066;52.540;13.420;2022-11-15T08:13:16;27.97;;;23.30;;
2119;SDS011;1066;52.540;13.420;2022-11-15T08:15:41;27.60;;;22.33;;
2119;SDS011;1066;52.540;13.420;2022-11-15T08:18:15;26.77;;;22.60;;
2119;SDS011;1066;52.540;13.420;2022-11-15T08:20:41;25.27;;;22.33;;
2119;SDS011;1066;52.540;13.420;2022-11-15T08:23:06;27.43;;;22.93;;
2119;SDS011;1066;52.540;13.420;2022-11-15T08:25:33;24.90;;;20.67;;
2119;SDS011;1066;52.540;13.420;2022-11-15T08:28:05;26.93;;;23.50;;
2119;SDS011;1066;52.540;13.420;2022-11-15T08:30:38;26.83;;;24.00;;
2119;SDS011;1066;52.540;13.420;2022-11-15T08:33:09;24.80;;;21.20;;
2119;SDS011;1066;52.540;13.420;2022-11-15T08:35:35;23.40;;;20.90;;
2119;SDS011;1066;52.540;13.420;2022-11-15T08:38:01;25.40;;;21.57;;
2119;SDS011;1066;52.540;13.420;2022-11-15T08:40:26;27.57;;;21.33;;
2119;SDS011;1066;52.540;13.420;2022-11-15T08:42:52;26.37;;;21.03;;
2119;SDS011;1066;52.540;13.420;2022-11-15T08:45:17;25.03;;;21.37;;
2119;SDS011;1066;52.540;13.420;2022-11-15T08:47:42;26.37;;;21.50;;
2119;SDS011;1066;52.540;13.420;2022-11-15T08:50:08;23.60;;;19.03;;
2119;SDS011;1066;52.540;13.420;2022-11-15T08:52:34;23.07;;;20.67;;
2119;SDS011;1066;52.540;13.420;2022-11-15T08:54:59;22.57;;;19.80;;
2119;SDS011;1066;52.540;13.420;2022-11-15T08:57:24;27.77;;;23.00;;
2119;SDS011;1066;52.540;13.420;2022-11-15T08:59:50;24.00;;;19.80;;
2119;SDS011;1066;52.540;13.420;2022-11-15T09:02:15;23.97;;;19.80;;
2119;SDS011;1066;52.540;13.420;2022-11-15T09:04:41;24.57;;;19.67;;
2119;SDS011;1066;52.540;13.420;2022-11-15T09:07:07;23.73;;;19.03;;
2119;SDS011;1066;52.540;13.420;2022-11-15T09:09:36;25.37;;;20.60;;
2119;SDS011;1066;52.540;13.420;2022-11-15T09:12:02;23.43;;;20.93;;
2119;SDS011;1066;52.540;13.420;2022-11-15T09:14:27;24.57;;;21.47;;
2119;SDS011;1066;52.540;13.420;2022-11-15T09:16:53;25.13;;;21.63;;
2119;SDS011;1066;52.540;13.420;2022-11-15T09:19:21;24.60;;;21.50;;
2119;SDS011;1066;52.540;13.420;2022-11-15T09:21:47;23.83;;;20.27;;
2119;SDS011;1066;52.540;13.420;2022-11-15T09:24:12;23.70;;;19.17;;
2119;SDS011;1066;52.540;13.420;2022-11-15T09:26:38;23.97;;;21.07;;
2119;SDS011;1066;52.540;13.420;2022-11-15T09:29:03;20.93;;;18.57;;
2119;SDS011;1066;52.540;13.420;2022-11-15T09:31:28;23.57;;;20.90;;
2119;SDS011;1066;52.540;13.420;2022-11-15T09:33:54;23.87;;;21.37;;
2119;SDS011;1066;52.540;13.420;2022-11-15T09:36:20;24.27;;;20.57;;
2119;SDS011;1066;52.540;13.420;2022-11-15T09:38:45;22.97;;;19.60;;
2119;SDS011;1066;52.540;13.420;2022-11-15T09:43:56;27.57;;;19.77;;
2119;SDS011;1066;52.540;13.420;2022-11-15T09:46:55;24.93;;;19.20;;
2119;SDS011;1066;52.540;13.420;2022-11-15T09:49:28;24.30;;;20.93;;
2119;SDS011;1066;52.540;13.420;2022-11-15T09:51:54;24.90;;;21.07;;
2119;SDS011;1066;52.540;13.420;2022-11-15T09:56:48;25.93;;;19.13;;
2119;SDS011;1066;52.540;13.420;2022-11-15T10:02:29;18.47;;;16.47;;
2119;SDS011;1066;52.540;13.420;2022-11-15T10:04:58;21.40;;;15.50;;
2119;SDS011;1066;52.540;13.420;2022-11-15T10:09:56;24.10;;;17.13;;
2119;SDS011;1066;52.540;13.420;2022-11-15T10:12:28;18.27;;;16.47;;
2119;SDS011;1066;52.540;13.420;2022-11-15T10:15:01;20.27;;;17.13;;
2119;SDS011;1066;52.540;13.420;2022-11-15T10:20:24;21.70;;;17.63;;
2119;SDS011;1066;52.540;13.420;2022-11-15T10:22:52;17.93;;;16.10;;
2119;SDS011;1066;52.540;13.420;2022-11-15T10:25:27;19.20;;;16.63;;
2119;SDS011;1066;52.540;13.420;2022-11-15T10:28:09;19.73;;;17.33;;
2119;SDS011;1066;52.540;13.420;2022-11-15T10:33:19;20.77;;;16.13;;
2119;SDS011;1066;52.540;13.420;2022-11-15T10:41:21;19.00;;;16.57;;
2119;SDS011;1066;52.540;13.420;2022-11-15T10:46:44;19.50;;;15.50;;
2119;SDS011;1066;52.540;13.420;2022-11-15T10:51:46;20.70;;;18.27;;
2119;SDS011;1066;52.540;13.420;2022-11-15T10:54:14;18.90;;;16.13;;
2119;SDS011;1066;52.540;13.420;2022-11-15T10:57:07;19.50;;;17.50;;
2119;SDS011;1066;52.540;13.420;2022-11-15T10:59:50;19.63;;;17.53;;
2119;SDS011;1066;52.540;13.420;2022-11-15T11:02:25;17.90;;;16.00;;
2119;SDS011;1066;52.540;13.420;2022-11-15T11:04:52;19.40;;;17.23;;
2119;SDS011;1066;52.540;13.420;2022-11-15T11:07:22;18.47;;;16.00;;
2119;SDS011;1066;52.540;13.420;2022-11-15T11:09:56;18.97;;;16.40;;
2119;SDS011;1066;52.540;13.420;2022-11-15T11:12:30;20.53;;;18.37;;
2119;SDS011;1066;52.540;13.420;2022-11-15T11:14:58;20.03;;;17.43;;
2119;SDS011;1066;52.540;13.420;2022-11-15T11:18:07;22.40;;;16.30;;
2119;SDS011;1066;52.540;13.420;2022-11-15T11:20:23;19.53;;;17.50;;
2119;SDS011;1066;52.540;13.420;2022-11-15T11:28:20;17.87;;;15.33;;
2119;SDS011;1066;52.540;13.420;2022-11-15T11:33:43;20.13;;;15.80;;
2119;SDS011;1066;52.540;13.420;2022-11-15T11:36:19;18.40;;;16.00;;
2119;SDS011;1066;52.540;13.420;2022-11-15T11:38:58;17.70;;;15.80;;
2119;SDS011;1066;52.540;13.420;2022-11-15T11:47:31;18.90;;;16.00;;
2119;SDS011;1066;52.540;13.420;2022-11-15T11:50:05;19.10;;;16.60;;
2119;SDS011;1066;52.540;13.420;2022-11-15T11:55:54;22.00;;;17.10;;
2119;SDS011;1066;52.540;13.420;2022-11-15T11:58:25;16.67;;;14.93;;
2119;SDS011;1066;52.540;13.420;2022-11-15T12:00:56;18.97;;;17.07;;
2119;SDS011;1066;52.540;13.420;2022-11-15T12:03:29;17.03;;;15.13;;
2119;SDS011;1066;52.540;13.420;2022-11-15T12:06:14;17.43;;;15.63;;
2119;SDS011;1066;52.540;13.420;2022-11-15T12:09:05;16.20;;;13.70;;
2119;SDS011;1066;52.540;13.420;2022-11-15T12:14:48;20.43;;;15.13;;
2119;SDS011;1066;52.540;13.420;2022-11-15T12:17:24;19.30;;;15.13;;
2119;SDS011;1066;52.540;13.420;2022-11-15T12:19:51;16.77;;;14.47;;
2119;SDS011;1066;52.540;13.420;2022-11-15T12:22:21;17.30;;;15.30;;
2119;SDS011;1066;52.540;13.420;2022-11-15T12:25:13;16.70;;;14.47;;
2119;SDS011;1066;52.540;13.420;2022-11-15T12:27:44;14.30;;;12.90;;
2119;SDS011;1066;52.540;13.420;2022-11-15T12:30:20;16.87;;;15.20;;
2119;SDS011;1066;52.540;13.420;2022-11-15T12:32:57;16.90;;;14.43;;
2119;SDS011;1066;52.540;13.420;2022-11-15T12:35:42;19.73;;;17.00;;
2119;SDS011;1066;52.540;13.420;2022-11-15T12:38:11;15.77;;;13.40;;
2119;SDS011;1066;52.540;13.420;2022-11-15T12:40:38;19.70;;;14.87;;
2119;SDS011;1066;52.540;13.420;2022-11-15T12:43:34;15.50;;;13.83;;
2119;SDS011;1066;52.540;13.420;2022-11-15T12:46:04;19.90;;;16.73;;
2119;SDS011;1066;52.540;13.420;2022-11-15T12:51:02;16.73;;;14.97;;
2119;SDS011;1066;52.540;13.420;2022-11-15T12:53:31;17.20;;;15.37;;
2119;SDS011;1066;52.540;13.420;2022-11-15T12:58:50;17.63;;;15.57;;
2119;SDS011;1066;52.540;13.420;2022-11-15T13:04:21;17.67;;;15.83;;
2119;SDS011;1066;52.540;13.420;2022-11-15T13:07:04;18.07;;;16.30;;
2119;SDS011;1066;52.540;13.420;2022-11-15T13:14:58;17.27;;;14.57;;
2119;SDS011;1066;52.540;13.420;2022-11-15T13:17:26;18.57;;;15.73;;
2119;SDS011;1066;52.540;13.420;2022-11-15T13:20:00;15.17;;;13.47;;
2119;SDS011;1066;52.540;13.420;2022-11-15T13:22:32;15.87;;;14.17;;
2119;SDS011;1066;52.540;13.420;2022-11-15T13:27:46;17.87;;;15.10;;
2119;SDS011;1066;52.540;13.420;2022-11-15T13:30:18;17.53;;;14.50;;
2119;SDS011;1066;52.540;13.420;2022-11-15T13:32:46;16.80;;;15.10;;
2119;SDS011;1066;52.540;13.420;2022-11-15T13:35:25;18.40;;;16.00;;
2119;SDS011;1066;52.540;13.420;2022-11-15T13:37:52;18.90;;;15.87;;
2119;SDS011;1066;52.540;13.420;2022-11-15T13:42:52;19.30;;;15.30;;
2119;SDS011;1066;52.540;13.420;2022-11-15T13:45:18;19.77;;;16.20;;
2119;SDS011;1066;52.540;13.420;2022-11-15T13:47:44;16.90;;;13.40;;
2119;SDS011;1066;52.540;13.420;2022-11-15T13:50:10;20.03;;;13.93;;
2119;SDS011;1066;52.540;13.420;2022-11-15T13:52:37;15.50;;;13.83;;
2119;SDS011;1066;52.540;13.420;2022-11-15T13:55:21;16.20;;;14.50;;
2119;SDS011;1066;52.540;13.420;2022-11-15T13:57:48;17.80;;;14.00;;
2119;SDS011;1066;52.540;13.420;2022-11-15T14:03:19;14.93;;;13.23;;
2119;SDS011;1066;52.540;13.420;2022-11-15T14:06:04;15.33;;;12.53;;
2119;SDS011;1066;52.540;13.420;2022-11-15T14:08:31;12.23;;;11.07;;
2119;SDS011;1066;52.540;13.420;2022-11-15T14:11:12;15.30;;;12.00;;
2119;SDS011;1066;52.540;13.420;2022-11-15T14:13:42;17.20;;;12.57;;
2119;SDS011;1066;52.540;13.420;2022-11-15T14:16:32;14.97;;;13.40;;
2119;SDS011;1066;52.540;13.420;2022-11-15T14:19:02;13.53;;;12.23;;
2119;SDS011;1066;52.540;13.420;2022-11-15T14:21:31;12.93;;;11.63;;
2119;SDS011;1066;52.540;13.420;2022-11-15T14:26:41;12.43;;;11.13;;
2119;SDS011;1066;52.540;13.420;2022-11-15T14:29:25;14.83;;;13.33;;
2119;SDS011;1066;52.540;13.420;2022-11-15T14:31:52;17.30;;;13.77;;
2119;SDS011;1066;52.540;13.420;2022-11-15T14:34:18;16.57;;;15.03;;
2119;SDS011;1066;52.540;13.420;2022-11-15T14:36:43;16.97;;;14.70;;
2119;SDS011;1066;52.540;13.420;2022-11-15T14:39:09;15.23;;;13.63;;
2119;SDS011;1066;52.540;13.420;2022-11-15T14:41:35;16.00;;;14.40;;
2119;SDS011;1066;52.540;13.420;2022-11-15T14:44:03;16.13;;;14.57;;
2119;SDS011;1066;52.540;13.420;2022-11-15T14:46:28;15.10;;;13.17;;
2119;SDS011;1066;52.540;13.420;2022-11-15T14:48:54;15.37;;;13.73;;
2119;SDS011;1066;52.540;13.420;2022-11-15T14:51:19;15.87;;;14.23;;
2119;SDS011;1066;52.540;13.420;2022-11-15T14:53:45;14.57;;;13.07;;
2119;SDS011;1066;52.540;13.420;2022-11-15T14:56:11;16.40;;;14.63;;
2119;SDS011;1066;52.540;13.420;2022-11-15T14:58:36;15.83;;;14.23;;
2119;SDS011;1066;52.540;13.420;2022-11-15T15:01:02;15.73;;;14.17;;
2119;SDS011;1066;52.540;13.420;2022-11-15T15:03:35;16.40;;;13.63;;
2119;SDS011;1066;52.540;13.420;2022-11-15T15:06:00;16.33;;;13.97;;
2119;SDS011;1066;52.540;13.420;2022-11-15T15:08:26;15.00;;;13.50;;
2119;SDS011;1066;52.540;13.420;2022-11-15T15:10:51;14.37;;;12.87;;
2119;SDS011;1066;52.540;13.420;2022-11-15T15:13:17;16.90;;;14.57;;
2119;SDS011;1066;52.540;13.420;2022-11-15T15:15:45;16.23;;;14.53;;
2119;SDS011;1066;52.540;13.420;2022-11-15T15:18:10;15.17;;;13.60;;
2119;SDS011;1066;52.540;13.420;2022-11-15T15:20:36;16.30;;;14.60;;
2119;SDS011;1066;52.540;13.420;2022-11-15T15:23:04;16.50;;;14.67;;
2119;SDS011;1066;52.540;13.420;2022-11-15T15:25:34;20.87;;;14.70;;
2119;SDS011;1066;52.540;13.420;2022-11-15T15:28:02;16.63;;;14.87;;
2119;SDS011;1066;52.540;13.420;2022-11-15T15:30:28;17.57;;;15.80;;
2119;SDS011;1066;52.540;13.420;2022-11-15T15:32:54;15.60;;;14.00;;
2119;SDS011;1066;52.540;13.420;2022-11-15T15:35:20;17.30;;;15.13;;
2119;SDS011;1066;52.540;13.420;2022-11-15T15:37:46;20.07;;;15.53;;
2119;SDS011;1066;52.540;13.420;2022-11-15T15:40:19;17.73;;;15.83;;
2119;SDS011;1066;52.540;13.420;2022-11-15T15:42:46;21.03;;;14.87;;
2119;SDS011;1066;52.540;13.420;2022-11-15T15:45:12;18.03;;;16.10;;
2119;SDS011;1066;52.540;13.420;2022-11-15T15:47:38;19.17;;;15.03;;
2119;SDS011;1066;52.540;13.420;2022-11-15T15:50:04;18.43;;;16.63;;
2119;SDS011;1066;52.540;13.420;2022-11-15T15:52:46;18.90;;;14.77;;
2119;SDS011;1066;52.540;13.420;2022-11-15T15:55:11;19.57;;;15.70;;
2119;SDS011;1066;52.540;13.420;2022-11-15T15:57:36;17.43;;;14.60;;
2119;SDS011;1066;52.540;13.420;2022-11-15T16:00:03;17.27;;;15.40;;
2119;SDS011;1066;52.540;13.420;2022-11-15T16:02:29;17.70;;;15.77;;
2119;SDS011;1066;52.540;13.420;2022-11-15T16:04:54;20.80;;;17.03;;
2119;SDS011;1066;52.540;13.420;2022-11-15T16:07:21;16.60;;;14.90;;
2119;SDS011;1066;52.540;13.420;2022-11-15T16:09:48;18.33;;;14.97;;
2119;SDS011;1066;52.540;13.420;2022-11-15T16:12:33;17.50;;;14.83;;
2119;SDS011;1066;52.540;13.420;2022-11-15T16:14:59;15.87;;;14.23;;
2119;SDS011;1066;52.540;13.420;2022-11-15T16:17:26;19.67;;;15.07;;
2119;SDS011;1066;52.540;13.420;2022-11-15T16:19:53;16.37;;;14.63;;
2119;SDS011;1066;52.540;13.420;2022-11-15T16:22:19;17.80;;;15.57;;
2119;SDS011;1066;52.540;13.420;2022-11-15T16:24:44;17.17;;;15.37;;
2119;SDS011;1066;52.540;13.420;2022-11-15T16:27:14;18.47;;;16.40;;